createdAt,value
2023-03-05T00:02:09.076Z,95303.38
2023-03-05T00:04:37.444Z,95293.78
2023-03-05T00:07:08.981Z,95298.03
2023-03-05T00:09:36.566Z,95298.84
2023-03-05T00:12:04.510Z,95287.59
2023-03-05T00:14:32.127Z,95287.59
2023-03-05T00:16:59.726Z,95288.56
2023-03-05T00:19:27.347Z,95285.81
2023-03-05T00:21:54.959Z,95282.41
2023-03-05T00:24:23.940Z,95274.56
2023-03-05T00:26:51.500Z,95279.78
2023-03-05T00:29:21.777Z,95281.56
2023-03-05T00:31:49.504Z,95285.00
2023-03-05T00:34:19.379Z,95285.81
2023-03-05T00:36:48.537Z,95273.75
2023-03-05T00:39:17.419Z,95273.75
2023-03-05T00:41:46.590Z,95272.91
2023-03-05T00:44:14.430Z,95268.53
2023-03-05T00:46:42.109Z,95257.25
2023-03-05T00:49:09.765Z,95258.91
2023-03-05T00:51:37.390Z,95260.53
2023-03-05T00:54:05.486Z,95256.16
2023-03-05T00:56:33.406Z,95252.72
2023-03-05T00:59:02.448Z,95250.94
2023-03-05T01:01:30.156Z,95250.13
2023-03-05T01:03:59.497Z,95246.56
2023-03-05T01:06:27.193Z,95239.69
2023-03-05T01:08:54.763Z,95242.28
2023-03-05T01:11:22.417Z,95231.84
2023-03-05T01:13:50.030Z,95231.03
2023-03-05T01:16:19.127Z,95230.22
2023-03-05T01:18:46.810Z,95218.81
2023-03-05T01:21:14.401Z,95219.66
2023-03-05T01:23:42.020Z,95232.84
2023-03-05T01:26:09.657Z,95227.63
2023-03-05T01:28:38.143Z,95219.91
2023-03-05T01:31:09.043Z,95222.41
2023-03-05T01:33:38.783Z,95219.91
2023-03-05T01:36:12.459Z,95211.28
2023-03-05T01:38:40.273Z,95219.13
2023-03-05T01:41:08.299Z,95210.31
2023-03-05T01:43:35.983Z,95211.16
2023-03-05T01:46:31.490Z,95202.50
2023-03-05T01:49:12.508Z,95205.94
2023-03-05T01:51:46.056Z,95202.50
2023-03-05T01:54:16.618Z,95199.06
2023-03-05T01:56:46.954Z,95203.47
2023-03-05T01:59:15.338Z,95197.44
2023-03-05T02:01:47.135Z,95188.78
2023-03-05T02:04:18.897Z,95193.03
2023-03-05T02:06:47.608Z,95200.88
2023-03-05T02:09:15.252Z,95186.16
2023-03-05T02:11:44.053Z,95186.31
2023-03-05T02:14:11.869Z,95187.00
2023-03-05T02:16:40.271Z,95193.03
2023-03-05T02:19:10.947Z,95182.63
2023-03-05T02:21:41.717Z,95184.38
2023-03-05T02:24:13.703Z,95180.00
2023-03-05T02:26:43.147Z,95182.63
2023-03-05T02:29:13.389Z,95177.41
2023-03-05T02:31:41.128Z,95183.41
2023-03-05T02:34:08.702Z,95176.56
2023-03-05T02:36:36.321Z,95172.97
2023-03-05T02:39:05.379Z,95169.56
2023-03-05T02:41:32.968Z,95167.75
2023-03-05T02:44:00.570Z,95167.75
2023-03-05T02:46:28.196Z,95163.38
2023-03-05T02:48:55.816Z,95154.59
2023-03-05T02:51:23.482Z,95153.91
2023-03-05T02:53:51.538Z,95147.72
2023-03-05T02:56:20.479Z,95150.34
2023-03-05T02:58:48.130Z,95144.44
2023-03-05T03:01:15.859Z,95136.63
2023-03-05T03:03:43.533Z,95136.47
2023-03-05T03:06:11.218Z,95129.47
2023-03-05T03:08:38.975Z,95128.78
2023-03-05T03:11:08.770Z,95127.84
2023-03-05T03:13:37.726Z,95121.81
2023-03-05T03:16:06.968Z,95120.16
2023-03-05T03:18:34.812Z,95115.91
2023-03-05T03:21:03.003Z,95123.59
2023-03-05T03:23:30.647Z,95118.53
2023-03-05T03:25:58.807Z,95115.91
2023-03-05T03:28:27.175Z,95124.56
2023-03-05T03:30:56.234Z,95112.31
2023-03-05T03:33:23.932Z,95115.91
2023-03-05T03:35:51.564Z,95108.09
2023-03-05T03:38:19.454Z,95109.03
2023-03-05T03:40:47.061Z,95112.47
2023-03-05T03:43:14.703Z,95107.25
2023-03-05T03:45:43.095Z,95110.81
2023-03-05T03:48:12.360Z,95103.81
2023-03-05T03:50:40.882Z,95106.44
2023-03-05T03:53:09.258Z,95101.22
2023-03-05T03:55:36.852Z,95102.19
2023-03-05T03:58:04.434Z,95095.16
2023-03-05T04:00:32.050Z,95091.63
2023-03-05T04:02:59.710Z,95098.59
2023-03-05T04:05:28.719Z,95095.06
2023-03-05T04:07:58.318Z,95078.56
2023-03-05T04:10:25.976Z,95082.00
2023-03-05T04:12:53.600Z,95084.63
2023-03-05T04:15:21.269Z,95077.47
2023-03-05T04:17:48.876Z,95079.25
2023-03-05T04:20:16.512Z,95077.47
2023-03-05T04:22:45.514Z,95072.09
2023-03-05T04:25:13.134Z,95073.06
2023-03-05T04:27:41.182Z,95067.88
2023-03-05T04:30:10.461Z,95062.66
2023-03-05T04:32:38.230Z,95065.25
2023-03-05T04:35:06.280Z,95060.03
2023-03-05T04:37:34.108Z,95063.59
2023-03-05T04:40:04.366Z,95058.53
2023-03-05T04:42:31.976Z,95065.25
2023-03-05T04:44:59.616Z,95056.75
2023-03-05T04:47:27.317Z,95052.34
2023-03-05T04:49:54.967Z,95052.34
2023-03-05T04:52:22.765Z,95050.72
2023-03-05T04:54:50.362Z,95044.69
2023-03-05T04:57:19.465Z,95054.28
2023-03-05T04:59:47.129Z,95049.88
2023-03-05T05:02:14.754Z,95049.72
2023-03-05T05:04:45.025Z,95041.25
2023-03-05T05:07:13.771Z,95042.75
2023-03-05T05:09:41.739Z,95037.69
2023-03-05T05:12:10.518Z,95036.69
2023-03-05T05:14:39.769Z,95037.53
2023-03-05T05:17:07.442Z,95042.75
2023-03-05T05:19:36.129Z,95041.78
2023-03-05T05:22:03.742Z,95039.97
2023-03-05T05:24:31.307Z,95032.16
2023-03-05T05:26:58.965Z,95028.59
2023-03-05T05:29:26.624Z,95027.75
2023-03-05T05:31:56.353Z,95025.81
2023-03-05T05:34:25.114Z,95036.25
2023-03-05T05:36:52.845Z,95039.69
2023-03-05T05:39:20.618Z,95037.25
2023-03-05T05:41:51.901Z,95038.84
2023-03-05T05:44:19.524Z,95038.03
2023-03-05T05:46:47.231Z,95041.47
2023-03-05T05:49:16.242Z,95041.63
2023-03-05T05:51:43.821Z,95040.63
2023-03-05T05:54:13.916Z,95045.06
2023-03-05T05:56:41.790Z,95051.91
2023-03-05T05:59:11.286Z,95046.69
2023-03-05T06:01:39.323Z,95037.91
2023-03-05T06:04:06.951Z,95038.84
2023-03-05T06:06:36.043Z,95043.25
2023-03-05T06:09:04.694Z,95041.47
2023-03-05T06:11:32.359Z,95042.44
2023-03-05T06:13:59.934Z,95043.41
2023-03-05T06:16:28.181Z,95045.84
2023-03-05T06:18:55.783Z,95035.41
2023-03-05T06:21:24.337Z,95041.34
2023-03-05T06:23:53.408Z,95039.53
2023-03-05T06:26:23.015Z,95044.75
2023-03-05T06:28:50.792Z,95042.00
2023-03-05T06:31:21.790Z,95041.19
2023-03-05T06:33:50.411Z,95037.59
2023-03-05T06:36:20.101Z,95036.63
2023-03-05T06:38:49.028Z,95040.19
2023-03-05T06:41:21.110Z,95028.81
2023-03-05T06:43:49.754Z,95036.63
2023-03-05T06:46:19.649Z,95037.47
2023-03-05T06:48:48.159Z,95035.81
2023-03-05T06:51:17.859Z,95027.03
2023-03-05T06:53:48.305Z,95030.59
2023-03-05T06:56:19.130Z,95034.84
2023-03-05T06:58:48.549Z,95034.03
2023-03-05T07:01:16.530Z,95027.97
2023-03-05T07:03:44.344Z,95031.56
2023-03-05T07:06:16.448Z,95022.09
2023-03-05T07:08:45.661Z,95020.31
2023-03-05T07:11:14.500Z,95030.59
2023-03-05T07:13:44.448Z,95031.41
2023-03-05T07:16:16.554Z,95027.97
2023-03-05T07:18:44.836Z,95029.75
2023-03-05T07:21:17.789Z,95026.19
2023-03-05T07:23:45.413Z,95035.81
2023-03-05T07:26:13.604Z,95033.19
2023-03-05T07:28:43.336Z,95026.19
2023-03-05T07:31:15.095Z,95029.63
2023-03-05T07:33:42.872Z,95034.84
2023-03-05T07:36:11.577Z,95023.44
2023-03-05T07:38:39.535Z,95021.66
2023-03-05T07:41:08.913Z,95023.31
2023-03-05T07:43:36.641Z,95028.66
2023-03-05T07:46:07.270Z,95027.69
2023-03-05T07:48:35.076Z,95030.31
2023-03-05T07:51:03.644Z,95019.03
2023-03-05T07:53:31.267Z,95027.69
2023-03-05T07:55:58.936Z,95022.47
2023-03-05T07:58:27.530Z,95025.91
2023-03-05T08:00:55.258Z,95013.84
2023-03-05T08:03:24.196Z,95017.25
2023-03-05T08:05:51.849Z,95011.22
2023-03-05T08:08:19.559Z,95008.63
2023-03-05T08:10:47.385Z,95014.66
2023-03-05T08:13:15.056Z,95011.22
2023-03-05T08:15:42.687Z,95003.41
2023-03-05T08:18:10.260Z,94999.97
2023-03-05T08:20:39.623Z,95003.41
2023-03-05T08:23:07.236Z,95005.19
2023-03-05T08:25:34.895Z,95003.41
2023-03-05T08:28:02.665Z,95001.75
2023-03-05T08:30:30.469Z,95005.19
2023-03-05T08:32:58.090Z,94997.34
2023-03-05T08:35:25.832Z,95005.19
2023-03-05T08:37:54.777Z,95005.19
2023-03-05T08:40:22.362Z,94996.53
2023-03-05T08:42:51.940Z,94986.91
2023-03-05T08:45:19.655Z,94996.53
2023-03-05T08:47:47.355Z,94995.56
2023-03-05T08:50:14.994Z,94992.97
2023-03-05T08:52:42.619Z,94993.78
2023-03-05T08:55:12.692Z,94991.19
2023-03-05T08:57:40.414Z,94992.00
2023-03-05T09:00:10.226Z,94978.13
2023-03-05T09:02:38.066Z,94978.97
2023-03-05T09:05:06.243Z,94976.19
2023-03-05T09:07:33.882Z,94987.59
2023-03-05T09:10:01.601Z,94985.81
2023-03-05T09:12:30.585Z,94976.19
2023-03-05T09:14:58.521Z,94973.59
2023-03-05T09:17:26.146Z,94970.00
2023-03-05T09:19:53.750Z,94965.75
2023-03-05T09:22:21.421Z,94967.47
2023-03-05T09:24:49.010Z,94964.56
2023-03-05T09:27:16.612Z,94954.84
2023-03-05T09:29:45.564Z,94953.56
2023-03-05T09:32:13.268Z,94949.94
2023-03-05T09:34:41.069Z,94951.38
2023-03-05T09:37:09.540Z,94947.72
2023-03-05T09:39:38.047Z,94954.06
2023-03-05T09:42:24.808Z,94957.09
2023-03-05T09:45:04.631Z,94965.22
2023-03-05T09:47:50.608Z,94967.16
2023-03-05T09:50:32.724Z,94959.50
2023-03-05T09:53:06.053Z,94956.22
2023-03-05T09:55:40.266Z,94953.59
2023-03-05T09:58:13.660Z,94949.50
2023-03-05T10:00:45.955Z,94956.50
2023-03-05T10:03:18.939Z,94948.84
2023-03-05T10:05:57.032Z,94952.94
2023-03-05T10:08:31.339Z,94948.69
2023-03-05T10:11:03.003Z,94949.34
2023-03-05T10:13:34.357Z,94944.13
2023-03-05T10:16:11.792Z,94936.16
2023-03-05T10:18:47.397Z,94937.78
2023-03-05T10:21:22.019Z,94937.66
2023-03-05T10:23:59.873Z,94928.03
2023-03-05T10:26:41.458Z,94928.69
2023-03-05T10:29:24.361Z,94920.56
2023-03-05T10:32:02.834Z,94921.22
2023-03-05T10:35:00.452Z,94929.75
2023-03-05T10:38:13.254Z,94926.03
2023-03-05T10:40:46.729Z,94928.34
2023-03-05T10:43:24.070Z,94917.75
2023-03-05T10:45:53.946Z,94914.00
2023-03-05T10:48:29.305Z,94920.06
2023-03-05T10:51:00.999Z,94922.34
2023-03-05T10:53:33.501Z,94910.94
2023-03-05T10:56:03.793Z,94909.16
2023-03-05T10:58:31.421Z,94900.22
2023-03-05T11:01:01.457Z,94890.25
2023-03-05T11:03:48.278Z,94890.25
2023-03-05T11:06:16.824Z,94884.75
2023-03-05T11:08:44.414Z,94887.34
2023-03-05T11:11:15.460Z,94876.91
2023-03-05T11:13:53.047Z,94881.31
2023-03-05T11:16:23.513Z,94877.88
2023-03-05T11:19:16.505Z,94873.94
2023-03-05T11:21:45.024Z,94867.06
2023-03-05T11:24:14.866Z,94869.84
2023-03-05T11:26:51.082Z,94858.59
2023-03-05T11:29:22.026Z,94863.13
2023-03-05T11:31:49.759Z,94860.69
2023-03-05T11:34:31.345Z,94857.41
2023-03-05T11:37:06.564Z,94862.78
2023-03-05T11:39:38.403Z,94850.72
2023-03-05T11:42:11.924Z,94853.31
2023-03-05T11:44:47.903Z,94853.63
2023-03-05T11:47:24.590Z,94846.63
2023-03-05T11:49:56.942Z,94846.78
2023-03-05T11:52:28.248Z,94840.56
2023-03-05T11:55:03.290Z,94831.13
2023-03-05T11:57:40.406Z,94825.25
2023-03-05T12:00:14.280Z,94821.66
2023-03-05T12:02:42.902Z,94818.38
2023-03-05T12:05:16.641Z,94816.59
2023-03-05T12:07:49.788Z,94822.63
2023-03-05T12:10:20.553Z,94825.38
2023-03-05T12:12:53.959Z,94815.78
2023-03-05T12:15:34.905Z,94820.16
2023-03-05T12:18:13.167Z,94812.34
2023-03-05T12:20:50.031Z,94812.34
2023-03-05T12:23:20.393Z,94805.34
2023-03-05T12:25:50.403Z,94796.69
2023-03-05T12:28:52.988Z,94794.06
2023-03-05T12:31:35.187Z,94795.72
2023-03-05T12:34:47.534Z,94780.91
2023-03-05T12:37:35.918Z,94785.28
2023-03-05T12:40:07.586Z,94780.91
2023-03-05T12:42:52.994Z,94775.69
2023-03-05T12:45:39.341Z,94772.25
2023-03-05T12:48:43.610Z,94765.38
2023-03-05T12:51:37.731Z,94766.19
2023-03-05T12:54:29.169Z,94767.03
2023-03-05T12:56:58.342Z,94755.59
2023-03-05T12:59:32.901Z,94756.75
2023-03-05T13:02:03.802Z,94753.97
2023-03-05T13:04:37.613Z,94753.97
2023-03-05T13:07:07.503Z,94753.16
2023-03-05T13:09:36.479Z,94747.94
2023-03-05T13:12:12.032Z,94741.91
2023-03-05T13:14:42.643Z,94747.09
2023-03-05T13:17:29.070Z,94740.09
2023-03-05T13:19:59.784Z,94742.72
2023-03-05T13:22:28.121Z,94747.94
2023-03-05T13:25:16.237Z,94735.88
2023-03-05T13:27:44.534Z,94739.28
2023-03-05T13:30:23.931Z,94731.47
2023-03-05T13:32:53.703Z,94731.47
2023-03-05T13:35:22.974Z,94736.66
2023-03-05T13:37:50.885Z,94729.66
2023-03-05T13:40:24.511Z,94724.81
2023-03-05T13:42:53.240Z,94724.28
2023-03-05T13:45:27.891Z,94729.44
2023-03-05T13:47:58.126Z,94728.59
2023-03-05T13:50:28.954Z,94719.75
2023-03-05T13:52:59.285Z,94721.22
2023-03-05T13:55:27.078Z,94727.19
2023-03-05T13:57:55.821Z,94716.56
2023-03-05T14:00:31.062Z,94718.03
2023-03-05T14:03:01.822Z,94725.16
2023-03-05T14:05:32.306Z,94717.00
2023-03-05T14:07:59.928Z,94719.25
2023-03-05T14:10:34.319Z,94709.13
2023-03-05T14:13:04.886Z,94716.59
2023-03-05T14:15:34.212Z,94711.38
2023-03-05T14:18:20.261Z,94717.56
2023-03-05T14:21:02.913Z,94710.19
2023-03-05T14:23:40.474Z,94708.13
2023-03-05T14:26:31.350Z,94705.81
2023-03-05T14:29:01.878Z,94698.94
2023-03-05T14:31:32.178Z,94692.56
2023-03-05T14:34:05.365Z,94694.53
2023-03-05T14:36:35.111Z,94690.59
2023-03-05T14:39:02.848Z,94685.84
2023-03-05T14:41:37.200Z,94690.38
2023-03-05T14:44:12.804Z,94685.97
2023-03-05T14:46:40.789Z,94677.19
2023-03-05T14:49:08.439Z,94674.88
2023-03-05T14:51:41.282Z,94677.38
2023-03-05T14:54:18.388Z,94671.78
2023-03-05T14:56:46.239Z,94672.06
2023-03-05T14:59:13.823Z,94662.13
2023-03-05T15:01:41.422Z,94662.28
2023-03-05T15:04:09.078Z,94661.44
2023-03-05T15:06:41.045Z,94669.44
2023-03-05T15:09:09.168Z,94661.56
2023-03-05T15:11:36.797Z,94666.25
2023-03-05T15:14:04.522Z,94669.00
2023-03-05T15:16:33.070Z,94670.78
2023-03-05T15:19:00.711Z,94657.97
2023-03-05T15:21:28.307Z,94659.63
2023-03-05T15:23:57.312Z,94659.31
2023-03-05T15:26:25.119Z,94658.72
2023-03-05T15:28:52.726Z,94658.09
2023-03-05T15:31:20.400Z,94649.88
2023-03-05T15:33:48.090Z,94647.16
2023-03-05T15:36:15.652Z,94647.81
2023-03-05T15:38:43.313Z,94643.63
2023-03-05T15:41:12.268Z,94643.00
2023-03-05T15:43:39.866Z,94630.31
2023-03-05T15:46:08.076Z,94639.13
2023-03-05T15:48:35.848Z,94625.31
2023-03-05T15:51:07.465Z,94626.78
2023-03-05T15:53:35.143Z,94622.88
2023-03-05T15:56:02.705Z,94623.66
2023-03-05T15:58:31.677Z,94611.63
2023-03-05T16:00:59.303Z,94615.41
2023-03-05T16:03:26.952Z,94616.56
2023-03-05T16:05:54.617Z,94608.44
2023-03-05T16:08:22.225Z,94606.66
2023-03-05T16:10:49.877Z,94606.66
2023-03-05T16:13:21.232Z,94606.66
2023-03-05T16:15:53.051Z,94609.25
2023-03-05T16:18:21.339Z,94614.47
2023-03-05T16:20:49.218Z,94601.56
2023-03-05T16:23:16.847Z,94601.75
2023-03-05T16:25:44.554Z,94604.50
2023-03-05T16:28:12.134Z,94599.44
2023-03-05T16:30:39.957Z,94608.25
2023-03-05T16:33:09.755Z,94598.78
2023-03-05T16:35:37.447Z,94589.47
2023-03-05T16:38:05.221Z,94597.31
2023-03-05T16:41:02.943Z,94592.25
2023-03-05T16:43:24.900Z,94588.16
2023-03-05T16:45:52.454Z,94586.56
2023-03-05T16:48:21.594Z,94593.56
2023-03-05T16:50:49.425Z,94585.72
2023-03-05T16:53:17.114Z,94590.13
2023-03-05T16:55:44.680Z,94596.34
2023-03-05T16:58:12.291Z,94592.72
2023-03-05T17:00:40.114Z,94588.50
2023-03-05T17:03:07.907Z,94598.13
2023-03-05T17:05:38.236Z,94594.69
2023-03-05T17:08:06.270Z,94585.09
2023-03-05T17:10:34.463Z,94583.44
2023-03-05T17:13:02.096Z,94586.03
2023-03-05T17:15:29.731Z,94574.81
2023-03-05T17:17:57.463Z,94576.44
2023-03-05T17:20:25.051Z,94579.03
2023-03-05T17:22:54.057Z,94572.22
2023-03-05T17:25:22.046Z,94578.22
2023-03-05T17:27:49.652Z,94577.44
2023-03-05T17:30:17.941Z,94575.59
2023-03-05T17:32:45.622Z,94577.44
2023-03-05T17:35:18.847Z,94577.44
2023-03-05T17:37:46.523Z,94574.00
2023-03-05T17:40:16.522Z,94569.59
2023-03-05T17:42:44.155Z,94571.38
2023-03-05T17:45:12.923Z,94569.75
2023-03-05T17:47:40.782Z,94575.78
2023-03-05T17:50:09.663Z,94574.97
2023-03-05T17:52:39.421Z,94575.78
2023-03-05T17:55:09.968Z,94574.97
2023-03-05T17:57:41.460Z,94567.97
2023-03-05T18:00:13.918Z,94570.56
2023-03-05T18:02:41.534Z,94571.38
2023-03-05T18:05:10.123Z,94565.34
2023-03-05T18:07:38.600Z,94574.00
2023-03-05T18:10:07.883Z,94563.56
2023-03-05T18:12:36.084Z,94570.56
2023-03-05T18:15:06.518Z,94572.22
2023-03-05T18:17:34.198Z,94567.78
2023-03-05T18:20:03.993Z,94562.56
2023-03-05T18:22:32.034Z,94558.34
2023-03-05T18:24:59.716Z,94566.00
2023-03-05T18:27:27.363Z,94557.34
2023-03-05T18:29:55.313Z,94552.97
2023-03-05T18:32:25.255Z,94556.41
2023-03-05T18:34:53.151Z,94554.63
2023-03-05T18:37:20.784Z,94555.41
2023-03-05T18:39:48.396Z,94546.78
2023-03-05T18:42:15.984Z,94548.41
2023-03-05T18:44:43.685Z,94540.59
2023-03-05T18:47:11.268Z,94546.63
2023-03-05T18:49:40.230Z,94541.41
2023-03-05T18:52:07.832Z,94543.06
2023-03-05T18:54:35.406Z,94543.84
2023-03-05T18:57:03.026Z,94542.22
2023-03-05T18:59:31.827Z,94540.28
2023-03-05T19:01:59.430Z,94546.31
2023-03-05T19:04:27.539Z,94542.72
2023-03-05T19:06:56.637Z,94524.47
2023-03-05T19:09:41.102Z,94534.06
2023-03-05T19:12:08.733Z,94533.28
2023-03-05T19:14:36.314Z,94532.28
2023-03-05T19:17:04.349Z,94526.91
2023-03-05T19:19:31.978Z,94524.47
2023-03-05T19:22:00.940Z,94518.41
2023-03-05T19:24:30.245Z,94530.66
2023-03-05T19:27:00.966Z,94529.69
2023-03-05T19:29:32.771Z,94533.09
2023-03-05T19:32:00.520Z,94521.03
2023-03-05T19:34:28.291Z,94522.69
2023-03-05T19:36:55.857Z,94521.69
2023-03-05T19:39:25.029Z,94525.28
2023-03-05T19:41:52.635Z,94519.06
2023-03-05T19:44:20.408Z,94513.06
2023-03-05T19:46:48.599Z,94513.22
2023-03-05T19:49:16.935Z,94509.81
2023-03-05T19:51:45.910Z,94517.47
2023-03-05T19:54:14.933Z,94512.41
2023-03-05T19:56:45.484Z,94506.22
2023-03-05T19:59:16.297Z,94507.03
2023-03-05T20:01:44.027Z,94510.47
2023-03-05T20:04:15.170Z,94507.03
2023-03-05T20:06:42.973Z,94515.69
2023-03-05T20:09:10.989Z,94507.03
2023-03-05T20:11:39.447Z,94510.47
2023-03-05T20:14:09.174Z,94502.63
2023-03-05T20:16:38.525Z,94502.63
2023-03-05T20:19:08.095Z,94504.25
2023-03-05T20:21:37.911Z,94505.91
2023-03-05T20:24:09.774Z,94500.69
2023-03-05T20:26:39.583Z,94492.84
2023-03-05T20:29:09.191Z,94490.25
2023-03-05T20:31:37.943Z,94492.03
2023-03-05T20:34:06.057Z,94491.06
2023-03-05T20:36:35.516Z,94484.22
2023-03-05T20:39:03.900Z,94478.03
2023-03-05T20:41:32.522Z,94481.44
2023-03-05T20:44:00.158Z,94483.25
2023-03-05T20:46:31.240Z,94483.25
2023-03-05T20:49:01.005Z,94486.66
2023-03-05T20:51:31.065Z,94484.03
2023-03-05T20:54:03.071Z,94482.44
2023-03-05T20:56:32.398Z,94477.22
2023-03-05T20:59:03.800Z,94474.59
2023-03-05T21:01:34.978Z,94478.03
2023-03-05T21:04:03.935Z,94476.38
2023-03-05T21:06:33.544Z,94472.00
2023-03-05T21:09:01.506Z,94467.75
2023-03-05T21:11:29.269Z,94468.56
2023-03-05T21:13:56.947Z,94467.75
2023-03-05T21:16:27.408Z,94466.91
2023-03-05T21:18:57.296Z,94462.53
2023-03-05T21:21:25.533Z,94459.09
2023-03-05T21:23:53.427Z,94459.09
2023-03-05T21:26:21.266Z,94456.50
2023-03-05T21:28:48.928Z,94456.50
2023-03-05T21:31:18.329Z,94451.28
2023-03-05T21:33:46.517Z,94439.22
2023-03-05T21:36:18.513Z,94438.25
2023-03-05T21:38:46.842Z,94436.63
2023-03-05T21:41:14.692Z,94434.84
2023-03-05T21:43:43.277Z,94432.22
2023-03-05T21:46:11.717Z,94423.59
2023-03-05T21:48:39.394Z,94432.06
2023-03-05T21:51:08.738Z,94426.19
2023-03-05T21:53:37.722Z,94421.81
2023-03-05T21:56:20.971Z,94423.41
2023-03-05T21:58:48.995Z,94417.38
2023-03-05T22:01:19.134Z,94414.78
2023-03-05T22:03:47.242Z,94403.38
2023-03-05T22:06:16.242Z,94404.19
2023-03-05T22:08:45.215Z,94401.59
2023-03-05T22:11:14.425Z,94398.16
2023-03-05T22:13:42.779Z,94399.94
2023-03-05T22:16:11.251Z,94401.72
2023-03-05T22:18:38.986Z,94397.50
2023-03-05T22:21:15.459Z,94400.94
2023-03-05T22:23:43.077Z,94403.56
2023-03-05T22:26:12.039Z,94403.69
2023-03-05T22:28:39.834Z,94397.69
2023-03-05T22:31:07.809Z,94393.25
2023-03-05T22:33:35.644Z,94389.88
2023-03-05T22:36:08.721Z,94395.88
2023-03-05T22:38:36.334Z,94386.44
2023-03-05T22:41:08.886Z,94387.25
2023-03-05T22:43:38.457Z,94390.81
2023-03-05T22:46:10.707Z,94389.03
2023-03-05T22:48:38.368Z,94383.00
2023-03-05T22:51:06.795Z,94379.44
2023-03-05T22:53:34.641Z,94376.81
2023-03-05T22:56:06.677Z,94369.78
2023-03-05T22:58:34.298Z,94376.00
2023-03-05T23:01:03.259Z,94374.22
2023-03-05T23:03:30.992Z,94371.63
2023-03-05T23:05:58.641Z,94377.63
2023-03-05T23:08:26.386Z,94373.41
2023-03-05T23:10:54.059Z,94367.19
2023-03-05T23:13:21.885Z,94369.00
2023-03-05T23:15:49.541Z,94361.19
2023-03-05T23:18:18.490Z,94359.38
2023-03-05T23:20:46.119Z,94357.75
2023-03-05T23:23:13.725Z,94349.94
2023-03-05T23:25:41.379Z,94349.94
2023-03-05T23:28:09.001Z,94348.94
2023-03-05T23:30:39.389Z,94353.34
2023-03-05T23:33:09.200Z,94358.56
2023-03-05T23:35:39.511Z,94354.16
2023-03-05T23:38:10.240Z,94348.16
2023-03-05T23:40:39.038Z,94355.78
2023-03-05T23:43:06.697Z,94353.19
2023-03-05T23:45:34.363Z,94348.94
2023-03-05T23:48:02.342Z,94349.94
2023-03-05T23:50:31.707Z,94338.50
2023-03-05T23:53:02.209Z,94343.56
2023-03-05T23:55:33.267Z,94341.75
2023-03-05T23:58:01.712Z,94335.41
